createdAt,value
2019-04-06T00:01:28.057Z,10.90
2019-04-06T00:04:33.715Z,13.70
2019-04-06T00:07:39.399Z,11.67
2019-04-06T00:10:45.138Z,11.73
2019-04-06T00:13:50.793Z,12.07
2019-04-06T00:16:56.503Z,11.97
2019-04-06T00:20:02.216Z,10.87
2019-04-06T00:23:07.916Z,12.77
2019-04-06T00:26:13.600Z,12.43
2019-04-06T00:29:19.416Z,12.03
2019-04-06T00:32:38.189Z,8.07
2019-04-06T00:35:43.909Z,12.53
2019-04-06T00:38:49.604Z,13.23
2019-04-06T00:41:55.406Z,11.83
2019-04-06T00:45:01.519Z,10.83
2019-04-06T00:48:07.182Z,12.03
2019-04-06T00:51:12.880Z,11.03
2019-04-06T00:54:18.565Z,13.53
2019-04-06T00:57:24.413Z,11.83
2019-04-06T01:00:30.125Z,13.17
2019-04-06T01:03:35.889Z,12.67
2019-04-06T01:06:41.700Z,13.80
2019-04-06T01:09:47.721Z,13.33
2019-04-06T01:12:54.480Z,13.13
2019-04-06T01:16:00.145Z,12.60
2019-04-06T01:19:05.964Z,12.73
2019-04-06T01:22:12.776Z,12.47
2019-04-06T01:25:18.514Z,12.83
2019-04-06T01:28:24.360Z,13.20
2019-04-06T01:31:30.236Z,12.67
2019-04-06T01:34:35.981Z,12.90
2019-04-06T01:37:41.636Z,12.17
2019-04-06T01:40:47.335Z,13.40
2019-04-06T01:43:53.525Z,12.73
2019-04-06T01:46:59.204Z,13.33
2019-04-06T01:50:05.263Z,13.10
2019-04-06T01:53:11.085Z,13.20
2019-04-06T01:56:18.667Z,13.37
2019-04-06T01:59:24.143Z,12.93
2019-04-06T02:02:32.325Z,12.73
2019-04-06T02:05:38.067Z,12.13
2019-04-06T02:08:43.843Z,11.97
2019-04-06T02:11:49.541Z,12.83
2019-04-06T02:14:55.256Z,12.77
2019-04-06T02:18:00.944Z,12.83
2019-04-06T02:21:06.654Z,13.80
2019-04-06T02:24:12.373Z,12.57
2019-04-06T02:27:18.088Z,13.07
2019-04-06T02:30:30.991Z,14.23
2019-04-06T02:34:11.049Z,13.50
2019-04-06T02:37:42.212Z,13.57
2019-04-06T02:41:00.274Z,13.67
2019-04-06T02:44:06.199Z,12.47
2019-04-06T02:47:11.909Z,13.13
2019-04-06T02:50:17.689Z,13.33
2019-04-06T02:53:23.413Z,13.33
2019-04-06T02:56:44.288Z,14.03
2019-04-06T02:59:36.819Z,12.67
2019-04-06T03:02:42.672Z,13.10
2019-04-06T03:05:48.715Z,12.20
2019-04-06T03:08:54.412Z,11.97
2019-04-06T03:12:00.191Z,13.43
2019-04-06T03:15:06.372Z,14.60
2019-04-06T03:18:12.033Z,13.77
2019-04-06T03:21:17.787Z,14.07
2019-04-06T03:24:23.622Z,14.90
2019-04-06T03:27:29.313Z,14.53
2019-04-06T03:30:35.100Z,14.00
2019-04-06T03:33:41.154Z,14.40
2019-04-06T03:36:46.966Z,14.60
2019-04-06T03:39:52.657Z,14.43
2019-04-06T03:42:58.324Z,17.20
2019-04-06T03:46:04.104Z,15.40
2019-04-06T03:49:09.839Z,16.23
2019-04-06T03:52:15.499Z,15.13
2019-04-06T03:55:21.352Z,16.20
2019-04-06T03:58:27.044Z,15.43
2019-04-06T04:01:32.710Z,15.53
2019-04-06T04:04:38.594Z,15.80
2019-04-06T04:07:44.346Z,17.13
2019-04-06T04:10:50.177Z,16.87
2019-04-06T04:13:55.843Z,16.77
2019-04-06T04:17:01.620Z,16.07
2019-04-06T04:20:07.728Z,15.93
2019-04-06T04:23:13.465Z,16.53
2019-04-06T04:26:19.132Z,16.80
2019-04-06T04:29:24.806Z,17.13
2019-04-06T04:32:30.612Z,16.30
2019-04-06T04:35:36.302Z,14.63
2019-04-06T04:38:42.009Z,18.13
2019-04-06T04:41:47.706Z,18.53
2019-04-06T04:44:53.495Z,17.17
2019-04-06T04:47:59.147Z,18.80
2019-04-06T04:51:05.010Z,19.57
2019-04-06T04:54:10.664Z,20.23
2019-04-06T04:57:16.378Z,18.43
2019-04-06T05:00:22.180Z,19.33
2019-04-06T05:03:27.786Z,20.30
2019-04-06T05:06:33.565Z,20.23
2019-04-06T05:09:39.231Z,19.70
2019-04-06T05:12:44.952Z,18.53
2019-04-06T05:16:15.554Z,20.13
2019-04-06T05:19:21.260Z,20.33
2019-04-06T05:22:27.658Z,19.73
2019-04-06T05:25:33.421Z,20.40
2019-04-06T05:28:39.076Z,20.33
2019-04-06T05:31:44.948Z,20.20
2019-04-06T05:34:50.616Z,20.17
2019-04-06T05:37:57.621Z,21.30
2019-04-06T05:41:03.335Z,19.67
2019-04-06T05:44:09.100Z,19.27
2019-04-06T05:47:14.966Z,20.80
2019-04-06T05:50:20.835Z,20.10
2019-04-06T05:53:26.657Z,20.17
2019-04-06T05:56:32.408Z,19.80
2019-04-06T05:59:40.292Z,19.60
2019-04-06T06:02:45.488Z,19.93
2019-04-06T06:05:51.205Z,20.00
2019-04-06T06:08:56.959Z,19.13
2019-04-06T06:12:02.847Z,19.27
2019-04-06T06:15:08.908Z,20.23
2019-04-06T06:18:25.369Z,17.50
2019-04-06T06:21:22.146Z,18.83
2019-04-06T06:24:27.818Z,20.93
2019-04-06T06:27:33.485Z,21.30
2019-04-06T06:30:41.694Z,20.93
2019-04-06T06:33:47.521Z,19.57
2019-04-06T06:36:53.737Z,19.80
2019-04-06T06:39:59.422Z,20.07
2019-04-06T06:43:05.317Z,19.63
2019-04-06T06:46:11.719Z,20.50
2019-04-06T06:49:17.594Z,20.27
2019-04-06T06:52:23.342Z,21.13
2019-04-06T06:55:29.110Z,20.77
2019-04-06T06:58:34.821Z,21.30
2019-04-06T07:01:40.618Z,20.33
2019-04-06T07:04:46.566Z,21.03
2019-04-06T07:07:52.239Z,20.53
2019-04-06T07:10:57.960Z,19.47
2019-04-06T07:14:03.810Z,20.20
2019-04-06T07:17:09.507Z,21.47
2019-04-06T07:20:15.477Z,20.03
2019-04-06T07:23:21.181Z,20.53
2019-04-06T07:26:26.867Z,20.50
2019-04-06T07:29:34.119Z,21.67
2019-04-06T07:32:39.834Z,22.60
2019-04-06T07:35:45.720Z,21.73
2019-04-06T07:38:51.574Z,21.60
2019-04-06T07:41:58.355Z,21.13
2019-04-06T07:45:04.662Z,21.23
2019-04-06T07:48:10.433Z,22.20
2019-04-06T07:51:16.658Z,21.97
2019-04-06T07:54:22.368Z,20.70
2019-04-06T07:57:28.094Z,21.90
2019-04-06T08:00:33.800Z,21.67
2019-04-06T08:03:40.794Z,21.67
2019-04-06T08:06:46.461Z,21.07
2019-04-06T08:09:52.133Z,21.67
2019-04-06T08:12:57.975Z,21.17
2019-04-06T08:16:03.771Z,24.67
2019-04-06T08:19:10.540Z,22.10
2019-04-06T08:22:16.244Z,22.57
2019-04-06T08:25:21.981Z,22.90
2019-04-06T08:28:27.756Z,22.53
2019-04-06T08:31:33.471Z,22.47
2019-04-06T08:34:39.305Z,21.20
2019-04-06T08:37:45.110Z,23.27
2019-04-06T08:40:50.778Z,21.63
2019-04-06T08:43:56.561Z,22.80
2019-04-06T08:47:02.251Z,22.77
2019-04-06T08:50:08.471Z,23.30
2019-04-06T08:53:15.354Z,24.40
2019-04-06T08:56:22.545Z,25.03
2019-04-06T08:59:28.367Z,24.93
2019-04-06T09:02:34.229Z,23.37
2019-04-06T09:05:39.935Z,24.07
2019-04-06T09:08:45.630Z,24.73
2019-04-06T09:11:51.422Z,24.73
2019-04-06T09:14:57.091Z,27.47
2019-04-06T09:18:02.849Z,27.23
2019-04-06T09:21:08.520Z,26.23
2019-04-06T09:24:14.279Z,24.83
2019-04-06T09:27:19.974Z,24.20
2019-04-06T09:30:25.764Z,24.63
2019-04-06T09:33:31.467Z,25.20
2019-04-06T09:36:37.270Z,25.17
2019-04-06T09:39:43.021Z,24.50
2019-04-06T09:42:49.887Z,26.00
2019-04-06T09:46:14.679Z,25.80
2019-04-06T09:49:42.396Z,23.90
2019-04-06T09:53:07.481Z,24.23
2019-04-06T09:56:22.506Z,24.63
2019-04-06T09:59:59.558Z,21.83
2019-04-06T10:03:22.787Z,24.90
2019-04-06T10:06:50.112Z,25.00
2019-04-06T10:10:23.792Z,16.83
2019-04-06T10:13:49.532Z,24.10
2019-04-06T10:17:17.222Z,24.20
2019-04-06T10:20:39.053Z,23.33
2019-04-06T10:24:16.234Z,25.00
2019-04-06T10:27:39.386Z,24.07
2019-04-06T10:31:19.394Z,23.37
2019-04-06T10:34:43.084Z,25.07
2019-04-06T10:38:14.053Z,24.13
2019-04-06T10:41:38.617Z,23.90
2019-04-06T10:45:01.763Z,23.17
2019-04-06T10:48:16.822Z,22.97
2019-04-06T10:51:56.599Z,29.07
2019-04-06T10:55:22.121Z,29.43
2019-04-06T10:58:38.422Z,22.47
2019-04-06T11:02:06.112Z,22.77
2019-04-06T11:05:23.912Z,21.17
2019-04-06T11:08:53.636Z,29.67
2019-04-06T11:12:27.294Z,22.47
2019-04-06T11:15:43.441Z,23.63
2019-04-06T11:19:26.130Z,23.40
2019-04-06T11:23:03.199Z,38.43
2019-04-06T11:26:45.284Z,22.03
2019-04-06T11:30:16.851Z,21.80
2019-04-06T11:33:41.682Z,17.43
2019-04-06T11:37:09.270Z,20.80
2019-04-06T11:40:36.997Z,20.37
2019-04-06T11:43:50.112Z,20.63
2019-04-06T11:47:04.631Z,22.10
2019-04-06T11:50:28.445Z,21.67
2019-04-06T11:53:51.356Z,22.03
2019-04-06T11:57:28.269Z,22.27
2019-04-06T12:00:40.521Z,20.33
2019-04-06T12:04:11.961Z,18.83
2019-04-06T12:07:31.295Z,20.73
2019-04-06T12:10:54.436Z,21.43
2019-04-06T12:14:26.352Z,19.97
2019-04-06T12:17:41.453Z,20.53
2019-04-06T12:21:04.858Z,20.57
2019-04-06T12:24:27.948Z,21.53
2019-04-06T12:28:01.609Z,18.97
2019-04-06T12:31:23.832Z,20.67
2019-04-06T12:34:43.688Z,20.57
2019-04-06T12:38:09.408Z,20.87
2019-04-06T12:41:33.132Z,20.83
2019-04-06T12:45:00.671Z,20.17
2019-04-06T12:48:17.180Z,20.10
2019-04-06T12:51:45.124Z,19.23
2019-04-06T12:55:08.384Z,20.53
2019-04-06T12:58:31.558Z,19.73
2019-04-06T13:01:52.374Z,19.83
2019-04-06T13:05:13.591Z,19.63
2019-04-06T13:08:35.822Z,20.67
2019-04-06T13:12:03.354Z,19.30
2019-04-06T13:15:43.487Z,20.83
2019-04-06T13:19:06.764Z,19.00
2019-04-06T13:22:29.983Z,16.00
2019-04-06T13:25:49.522Z,15.57
2019-04-06T13:29:20.256Z,15.93
2019-04-06T13:32:48.342Z,15.80
2019-04-06T13:36:05.221Z,14.63
2019-04-06T13:39:19.486Z,15.30
2019-04-06T13:42:39.865Z,15.30
2019-04-06T13:46:17.915Z,14.47
2019-04-06T13:49:43.323Z,13.33
2019-04-06T13:53:05.098Z,13.33
2019-04-06T13:56:36.198Z,13.27
2019-04-06T13:59:55.492Z,13.43
2019-04-06T14:03:38.661Z,13.67
2019-04-06T14:07:01.699Z,14.07
2019-04-06T14:10:25.594Z,14.60
2019-04-06T14:13:53.502Z,14.63
2019-04-06T14:17:36.132Z,13.67
2019-04-06T14:21:18.978Z,13.20
2019-04-06T14:24:43.592Z,13.37
2019-04-06T14:27:58.917Z,12.37
2019-04-06T14:31:28.210Z,13.63
2019-04-06T14:34:46.253Z,16.37
2019-04-06T14:38:11.128Z,13.60
2019-04-06T14:41:38.964Z,12.30
2019-04-06T14:45:06.667Z,12.27
2019-04-06T14:48:34.095Z,12.50
2019-04-06T14:52:01.505Z,12.07
2019-04-06T14:55:23.873Z,13.60
2019-04-06T14:59:03.765Z,11.97
2019-04-06T15:02:28.975Z,12.07
2019-04-06T15:05:56.567Z,12.70
2019-04-06T15:09:20.180Z,12.83
2019-04-06T15:12:54.393Z,10.63
2019-04-06T15:16:28.101Z,11.10
2019-04-06T15:19:52.584Z,12.27
2019-04-06T15:23:23.632Z,12.10
2019-04-06T15:26:47.386Z,12.00
2019-04-06T15:30:01.327Z,12.93
2019-04-06T15:33:37.167Z,13.23
2019-04-06T15:36:59.089Z,11.83
2019-04-06T15:40:21.135Z,9.83
2019-04-06T15:43:51.770Z,10.77
2019-04-06T15:47:19.379Z,11.60
2019-04-06T15:50:59.322Z,11.40
2019-04-06T15:54:14.324Z,11.07
2019-04-06T15:57:42.062Z,11.53
2019-04-06T16:01:09.395Z,10.73
2019-04-06T16:04:49.560Z,11.07
2019-04-06T16:08:16.815Z,12.03
2019-04-06T16:11:40.443Z,11.10
2019-04-06T16:15:12.239Z,10.43
2019-04-06T16:18:35.971Z,9.97
2019-04-06T16:22:00.728Z,10.47
2019-04-06T16:25:15.459Z,10.23
2019-04-06T16:28:40.295Z,10.03
2019-04-06T16:32:12.324Z,10.27
2019-04-06T16:35:43.801Z,10.87
2019-04-06T16:39:14.317Z,12.67
2019-04-06T16:42:48.318Z,11.60
2019-04-06T16:46:14.507Z,10.77
2019-04-06T16:49:38.105Z,10.10
2019-04-06T16:53:19.468Z,10.93
2019-04-06T16:56:47.715Z,9.17
2019-04-06T17:00:01.340Z,9.37
2019-04-06T17:03:27.590Z,10.10
2019-04-06T17:07:04.418Z,11.83
2019-04-06T17:10:29.115Z,10.00
2019-04-06T17:13:53.934Z,9.90
2019-04-06T17:17:17.555Z,10.17
2019-04-06T17:20:39.451Z,9.30
2019-04-06T17:24:06.935Z,10.60
2019-04-06T17:27:21.744Z,9.30
2019-04-06T17:30:36.115Z,9.00
2019-04-06T17:33:48.883Z,9.83
2019-04-06T17:37:31.657Z,9.37
2019-04-06T17:41:02.280Z,9.00
2019-04-06T17:44:26.871Z,9.40
2019-04-06T17:47:41.228Z,8.73
2019-04-06T17:51:11.640Z,8.90
2019-04-06T17:54:45.611Z,13.17
2019-04-06T17:58:09.043Z,11.30
2019-04-06T18:01:34.312Z,9.40
2019-04-06T18:04:46.542Z,12.10
2019-04-06T18:08:09.817Z,9.73
2019-04-06T18:11:27.643Z,11.60
2019-04-06T18:14:33.694Z,10.57
2019-04-06T18:17:39.495Z,10.07
2019-04-06T18:20:45.305Z,9.40
2019-04-06T18:23:51.385Z,9.93
2019-04-06T18:26:58.424Z,8.40
2019-04-06T18:30:06.861Z,9.17
2019-04-06T18:33:16.403Z,7.67
2019-04-06T18:36:27.973Z,8.53
2019-04-06T18:39:33.660Z,8.20
2019-04-06T18:42:39.982Z,7.57
2019-04-06T18:45:45.830Z,8.37
2019-04-06T18:48:51.833Z,7.90
2019-04-06T18:51:57.475Z,14.03
2019-04-06T18:55:03.225Z,9.43
2019-04-06T18:58:13.055Z,9.90
2019-04-06T19:01:19.316Z,8.30
2019-04-06T19:04:25.315Z,10.33
2019-04-06T19:07:31.533Z,7.97
2019-04-06T19:10:41.789Z,7.90
2019-04-06T19:13:47.642Z,6.97
2019-04-06T19:16:54.329Z,6.80
2019-04-06T19:20:00.165Z,9.37
2019-04-06T19:23:05.886Z,8.00
2019-04-06T19:26:14.379Z,7.77
2019-04-06T19:29:20.062Z,7.50
2019-04-06T19:32:26.023Z,8.60
2019-04-06T19:35:31.761Z,6.57
2019-04-06T19:38:47.378Z,7.23
2019-04-06T19:41:53.812Z,8.03
2019-04-06T19:45:04.990Z,8.53
2019-04-06T19:48:10.968Z,8.43
2019-04-06T19:51:17.227Z,7.30
2019-04-06T19:54:24.883Z,8.10
2019-04-06T19:57:30.643Z,7.43
2019-04-06T20:00:36.302Z,7.50
2019-04-06T20:03:42.183Z,9.47
2019-04-06T20:06:47.856Z,7.17
2019-04-06T20:09:53.553Z,7.43
2019-04-06T20:12:59.645Z,7.60
2019-04-06T20:16:05.519Z,8.00
2019-04-06T20:19:11.281Z,7.80
2019-04-06T20:22:16.957Z,9.20
2019-04-06T20:25:23.078Z,8.47
2019-04-06T20:28:28.907Z,8.67
2019-04-06T20:31:35.078Z,9.80
2019-04-06T20:34:41.304Z,8.73
2019-04-06T20:37:47.027Z,8.13
2019-04-06T20:40:52.711Z,8.10
2019-04-06T20:43:58.515Z,7.33
2019-04-06T20:47:04.369Z,7.13
2019-04-06T20:50:10.566Z,9.07
2019-04-06T20:53:16.375Z,8.57
2019-04-06T20:56:22.031Z,7.00
2019-04-06T20:59:28.280Z,7.27
2019-04-06T21:02:34.113Z,8.07
2019-04-06T21:05:39.795Z,8.87
2019-04-06T21:08:45.928Z,7.80
2019-04-06T21:11:52.274Z,7.73
2019-04-06T21:14:58.009Z,8.00
2019-04-06T21:18:03.715Z,7.27
2019-04-06T21:21:09.973Z,7.63
2019-04-06T21:24:15.862Z,7.17
2019-04-06T21:27:21.577Z,7.77
2019-04-06T21:30:27.814Z,7.43
2019-04-06T21:33:33.959Z,7.73
2019-04-06T21:36:39.632Z,7.80
2019-04-06T21:39:50.919Z,7.43
2019-04-06T21:42:56.730Z,7.70
2019-04-06T21:46:02.500Z,7.70
2019-04-06T21:49:08.798Z,7.37
2019-04-06T21:52:14.597Z,6.60
2019-04-06T21:55:20.712Z,7.50
2019-04-06T21:58:27.065Z,7.10
2019-04-06T22:01:33.494Z,7.73
2019-04-06T22:04:39.209Z,6.53
2019-04-06T22:07:49.634Z,7.63
2019-04-06T22:10:52.860Z,6.73
2019-04-06T22:13:58.997Z,7.87
2019-04-06T22:17:05.259Z,7.20
2019-04-06T22:20:12.314Z,8.33
2019-04-06T22:23:18.552Z,7.70
2019-04-06T22:26:25.951Z,8.07
2019-04-06T22:29:31.804Z,7.50
2019-04-06T22:32:37.493Z,7.90
2019-04-06T22:35:43.300Z,8.23
2019-04-06T22:38:49.230Z,8.73
2019-04-06T22:41:55.068Z,7.93
2019-04-06T22:45:01.377Z,8.30
2019-04-06T22:48:07.362Z,8.30
2019-04-06T22:51:13.660Z,8.33
2019-04-06T22:54:19.679Z,8.03
2019-04-06T22:57:25.344Z,8.97
2019-04-06T23:00:34.913Z,9.10
2019-04-06T23:04:05.374Z,9.20
2019-04-06T23:07:13.953Z,8.93
2019-04-06T23:10:20.047Z,8.80
2019-04-06T23:13:25.996Z,8.97
2019-04-06T23:16:31.717Z,8.37
2019-04-06T23:19:37.634Z,8.90
2019-04-06T23:22:43.448Z,9.00
2019-04-06T23:25:49.366Z,9.30
2019-04-06T23:28:55.208Z,8.87
2019-04-06T23:32:01.053Z,8.97
2019-04-06T23:35:07.126Z,9.20
2019-04-06T23:38:13.279Z,9.70
2019-04-06T23:41:20.076Z,8.63
2019-04-06T23:44:26.472Z,9.53
2019-04-06T23:47:32.419Z,9.40
2019-04-06T23:50:39.497Z,10.33
2019-04-06T23:53:46.777Z,10.07
2019-04-06T23:56:54.542Z,9.67
